sensor_id;sensor_type;location;lat;lon;timestamp;P1;durP1;ratioP1;P2;durP2;ratioP2
28910;SDS011;16028;42.642;23.310;2023-06-24T00:02:26;25.33;;;14.75;;
28910;SDS011;16028;42.642;23.310;2023-06-24T00:04:53;19.13;;;13.70;;
28910;SDS011;16028;42.642;23.310;2023-06-24T00:07:25;21.40;;;14.68;;
28910;SDS011;16028;42.642;23.310;2023-06-24T00:09:53;23.17;;;14.48;;
28910;SDS011;16028;42.642;23.310;2023-06-24T00:12:21;17.45;;;14.23;;
28910;SDS011;16028;42.642;23.310;2023-06-24T00:14:48;19.33;;;14.80;;
28910;SDS011;16028;42.642;23.310;2023-06-24T00:17:16;21.60;;;15.27;;
28910;SDS011;16028;42.642;23.310;2023-06-24T00:19:45;22.00;;;15.98;;
28910;SDS011;16028;42.642;23.310;2023-06-24T00:22:12;21.30;;;15.32;;
28910;SDS011;16028;42.642;23.310;2023-06-24T00:24:39;22.42;;;15.13;;
28910;SDS011;16028;42.642;23.310;2023-06-24T00:27:09;21.30;;;15.57;;
28910;SDS011;16028;42.642;23.310;2023-06-24T00:29:36;24.05;;;15.82;;
28910;SDS011;16028;42.642;23.310;2023-06-24T00:32:03;22.83;;;15.77;;
28910;SDS011;16028;42.642;23.310;2023-06-24T00:34:30;25.08;;;15.13;;
28910;SDS011;16028;42.642;23.310;2023-06-24T00:36:56;19.48;;;15.32;;
28910;SDS011;16028;42.642;23.310;2023-06-24T00:39:23;20.73;;;15.45;;
28910;SDS011;16028;42.642;23.310;2023-06-24T00:41:50;23.20;;;15.98;;
28910;SDS011;16028;42.642;23.310;2023-06-24T00:44:18;20.23;;;15.48;;
28910;SDS011;16028;42.642;23.310;2023-06-24T00:46:45;21.40;;;15.90;;
28910;SDS011;16028;42.642;23.310;2023-06-24T00:49:14;22.73;;;16.02;;
28910;SDS011;16028;42.642;23.310;2023-06-24T00:51:41;23.95;;;16.55;;
28910;SDS011;16028;42.642;23.310;2023-06-24T00:54:12;21.60;;;14.95;;
28910;SDS011;16028;42.642;23.310;2023-06-24T00:56:39;19.52;;;15.35;;
28910;SDS011;16028;42.642;23.310;2023-06-24T00:59:07;21.63;;;16.17;;
28910;SDS011;16028;42.642;23.310;2023-06-24T01:01:38;26.50;;;15.70;;
28910;SDS011;16028;42.642;23.310;2023-06-24T01:04:09;22.58;;;16.00;;
28910;SDS011;16028;42.642;23.310;2023-06-24T01:06:36;20.13;;;16.05;;
28910;SDS011;16028;42.642;23.310;2023-06-24T01:09:08;24.38;;;16.48;;
28910;SDS011;16028;42.642;23.310;2023-06-24T01:11:35;25.80;;;16.40;;
28910;SDS011;16028;42.642;23.310;2023-06-24T01:14:02;22.42;;;16.10;;
28910;SDS011;16028;42.642;23.310;2023-06-24T01:16:30;20.17;;;15.10;;
28910;SDS011;16028;42.642;23.310;2023-06-24T01:19:17;18.30;;;15.18;;
28910;SDS011;16028;42.642;23.310;2023-06-24T01:22:00;23.15;;;15.82;;
28910;SDS011;16028;42.642;23.310;2023-06-24T01:24:44;23.13;;;14.80;;
28910;SDS011;16028;42.642;23.310;2023-06-24T01:27:24;19.65;;;15.07;;
28910;SDS011;16028;42.642;23.310;2023-06-24T01:30:08;21.10;;;15.18;;
28910;SDS011;16028;42.642;23.310;2023-06-24T01:32:54;21.77;;;15.70;;
28910;SDS011;16028;42.642;23.310;2023-06-24T01:35:32;22.20;;;15.75;;
28910;SDS011;16028;42.642;23.310;2023-06-24T01:38:01;18.63;;;14.77;;
28910;SDS011;16028;42.642;23.310;2023-06-24T01:40:34;23.33;;;15.40;;
28910;SDS011;16028;42.642;23.310;2023-06-24T01:43:05;19.60;;;15.75;;
28910;SDS011;16028;42.642;23.310;2023-06-24T01:45:39;24.45;;;15.60;;
28910;SDS011;16028;42.642;23.310;2023-06-24T01:48:11;25.17;;;15.10;;
28910;SDS011;16028;42.642;23.310;2023-06-24T01:50:43;20.60;;;15.15;;
28910;SDS011;16028;42.642;23.310;2023-06-24T01:53:14;23.20;;;15.35;;
28910;SDS011;16028;42.642;23.310;2023-06-24T01:55:45;19.23;;;15.05;;
28910;SDS011;16028;42.642;23.310;2023-06-24T01:58:14;18.35;;;14.63;;
28910;SDS011;16028;42.642;23.310;2023-06-24T02:00:44;18.25;;;15.00;;
28910;SDS011;16028;42.642;23.310;2023-06-24T02:03:12;22.45;;;15.70;;
28910;SDS011;16028;42.642;23.310;2023-06-24T02:05:40;19.42;;;15.50;;
28910;SDS011;16028;42.642;23.310;2023-06-24T02:08:08;22.90;;;16.65;;
28910;SDS011;16028;42.642;23.310;2023-06-24T02:10:39;22.25;;;16.30;;
28910;SDS011;16028;42.642;23.310;2023-06-24T02:13:07;21.92;;;15.55;;
28910;SDS011;16028;42.642;23.310;2023-06-24T02:15:36;22.10;;;16.00;;
28910;SDS011;16028;42.642;23.310;2023-06-24T02:18:05;19.23;;;15.73;;
28910;SDS011;16028;42.642;23.310;2023-06-24T02:20:36;20.10;;;16.27;;
28910;SDS011;16028;42.642;23.310;2023-06-24T02:23:04;22.05;;;16.70;;
28910;SDS011;16028;42.642;23.310;2023-06-24T02:25:34;20.58;;;16.25;;
28910;SDS011;16028;42.642;23.310;2023-06-24T02:28:05;23.45;;;16.60;;
28910;SDS011;16028;42.642;23.310;2023-06-24T02:30:33;19.98;;;15.95;;
28910;SDS011;16028;42.642;23.310;2023-06-24T02:33:01;24.38;;;16.33;;
28910;SDS011;16028;42.642;23.310;2023-06-24T02:35:28;19.02;;;15.45;;
28910;SDS011;16028;42.642;23.310;2023-06-24T02:37:56;19.63;;;15.60;;
28910;SDS011;16028;42.642;23.310;2023-06-24T02:40:23;19.10;;;14.93;;
28910;SDS011;16028;42.642;23.310;2023-06-24T02:42:50;19.08;;;14.70;;
28910;SDS011;16028;42.642;23.310;2023-06-24T02:45:17;23.95;;;15.35;;
28910;SDS011;16028;42.642;23.310;2023-06-24T02:47:45;22.25;;;15.65;;
28910;SDS011;16028;42.642;23.310;2023-06-24T02:50:13;23.23;;;16.02;;
28910;SDS011;16028;42.642;23.310;2023-06-24T02:52:41;22.85;;;15.38;;
28910;SDS011;16028;42.642;23.310;2023-06-24T02:55:10;21.25;;;15.57;;
28910;SDS011;16028;42.642;23.310;2023-06-24T02:57:38;23.23;;;15.23;;
28910;SDS011;16028;42.642;23.310;2023-06-24T03:00:06;20.33;;;15.60;;
28910;SDS011;16028;42.642;23.310;2023-06-24T03:02:37;19.70;;;15.18;;
28910;SDS011;16028;42.642;23.310;2023-06-24T03:05:05;19.70;;;14.73;;
28910;SDS011;16028;42.642;23.310;2023-06-24T03:07:33;22.30;;;14.93;;
28910;SDS011;16028;42.642;23.310;2023-06-24T03:10:01;23.63;;;15.73;;
28910;SDS011;16028;42.642;23.310;2023-06-24T03:12:31;21.88;;;15.98;;
28910;SDS011;16028;42.642;23.310;2023-06-24T03:14:58;24.38;;;18.48;;
28910;SDS011;16028;42.642;23.310;2023-06-24T03:17:25;21.40;;;17.35;;
28910;SDS011;16028;42.642;23.310;2023-06-24T03:19:52;23.95;;;16.92;;
28910;SDS011;16028;42.642;23.310;2023-06-24T03:22:20;21.58;;;16.95;;
28910;SDS011;16028;42.642;23.310;2023-06-24T03:24:47;20.77;;;15.93;;
28910;SDS011;16028;42.642;23.310;2023-06-24T03:27:14;21.30;;;15.95;;
28910;SDS011;16028;42.642;23.310;2023-06-24T03:29:43;23.30;;;15.57;;
28910;SDS011;16028;42.642;23.310;2023-06-24T03:32:09;21.05;;;16.15;;
28910;SDS011;16028;42.642;23.310;2023-06-24T03:34:36;20.98;;;15.20;;
28910;SDS011;16028;42.642;23.310;2023-06-24T03:37:06;23.30;;;15.85;;
28910;SDS011;16028;42.642;23.310;2023-06-24T03:39:33;23.33;;;16.58;;
28910;SDS011;16028;42.642;23.310;2023-06-24T03:41:59;19.88;;;15.38;;
28910;SDS011;16028;42.642;23.310;2023-06-24T03:44:29;26.30;;;15.77;;
28910;SDS011;16028;42.642;23.310;2023-06-24T03:46:57;18.67;;;15.70;;
28910;SDS011;16028;42.642;23.310;2023-06-24T03:49:24;20.27;;;16.75;;
28910;SDS011;16028;42.642;23.310;2023-06-24T03:51:51;19.35;;;16.27;;
28910;SDS011;16028;42.642;23.310;2023-06-24T03:54:18;19.73;;;15.88;;
28910;SDS011;16028;42.642;23.310;2023-06-24T03:56:44;24.75;;;16.42;;
28910;SDS011;16028;42.642;23.310;2023-06-24T03:59:11;21.17;;;16.52;;
28910;SDS011;16028;42.642;23.310;2023-06-24T04:01:39;26.13;;;17.30;;
28910;SDS011;16028;42.642;23.310;2023-06-24T04:04:07;22.48;;;16.77;;
28910;SDS011;16028;42.642;23.310;2023-06-24T04:06:33;23.13;;;17.42;;
28910;SDS011;16028;42.642;23.310;2023-06-24T04:09:00;23.88;;;18.63;;
28910;SDS011;16028;42.642;23.310;2023-06-24T04:11:27;24.75;;;19.10;;
28910;SDS011;16028;42.642;23.310;2023-06-24T04:13:54;29.27;;;18.30;;
28910;SDS011;16028;42.642;23.310;2023-06-24T04:16:21;28.50;;;19.27;;
28910;SDS011;16028;42.642;23.310;2023-06-24T04:18:47;25.65;;;19.75;;
28910;SDS011;16028;42.642;23.310;2023-06-24T04:21:16;27.52;;;19.08;;
28910;SDS011;16028;42.642;23.310;2023-06-24T04:23:42;24.90;;;18.08;;
28910;SDS011;16028;42.642;23.310;2023-06-24T04:26:09;23.42;;;18.15;;
28910;SDS011;16028;42.642;23.310;2023-06-24T04:28:38;28.48;;;18.98;;
28910;SDS011;16028;42.642;23.310;2023-06-24T04:31:05;23.98;;;17.58;;
28910;SDS011;16028;42.642;23.310;2023-06-24T04:33:32;22.30;;;17.30;;
28910;SDS011;16028;42.642;23.310;2023-06-24T04:35:58;23.75;;;18.33;;
28910;SDS011;16028;42.642;23.310;2023-06-24T04:38:27;24.75;;;17.17;;
28910;SDS011;16028;42.642;23.310;2023-06-24T04:40:53;25.45;;;17.77;;
28910;SDS011;16028;42.642;23.310;2023-06-24T04:43:20;20.10;;;17.60;;
28910;SDS011;16028;42.642;23.310;2023-06-24T04:45:47;20.50;;;16.60;;
28910;SDS011;16028;42.642;23.310;2023-06-24T04:48:14;18.95;;;15.25;;
28910;SDS011;16028;42.642;23.310;2023-06-24T04:50:41;22.75;;;16.65;;
28910;SDS011;16028;42.642;23.310;2023-06-24T04:53:07;23.70;;;16.15;;
28910;SDS011;16028;42.642;23.310;2023-06-24T04:55:36;24.25;;;19.02;;
28910;SDS011;16028;42.642;23.310;2023-06-24T04:58:02;26.98;;;16.63;;
28910;SDS011;16028;42.642;23.310;2023-06-24T05:00:29;21.60;;;15.60;;
28910;SDS011;16028;42.642;23.310;2023-06-24T05:02:56;23.33;;;15.43;;
28910;SDS011;16028;42.642;23.310;2023-06-24T05:05:23;22.90;;;14.85;;
28910;SDS011;16028;42.642;23.310;2023-06-24T05:07:50;19.25;;;15.40;;
28910;SDS011;16028;42.642;23.310;2023-06-24T05:10:17;23.27;;;16.23;;
28910;SDS011;16028;42.642;23.310;2023-06-24T05:12:45;22.88;;;14.93;;
28910;SDS011;16028;42.642;23.310;2023-06-24T05:15:12;18.90;;;15.68;;
28910;SDS011;16028;42.642;23.310;2023-06-24T05:17:39;21.35;;;15.15;;
28910;SDS011;16028;42.642;23.310;2023-06-24T05:20:09;23.30;;;15.80;;
28910;SDS011;16028;42.642;23.310;2023-06-24T05:22:36;23.35;;;15.32;;
28910;SDS011;16028;42.642;23.310;2023-06-24T05:25:04;23.05;;;18.10;;
28910;SDS011;16028;42.642;23.310;2023-06-24T05:27:31;21.60;;;17.55;;
28910;SDS011;16028;42.642;23.310;2023-06-24T05:29:59;23.77;;;17.50;;
28910;SDS011;16028;42.642;23.310;2023-06-24T05:32:26;19.45;;;15.75;;
28910;SDS011;16028;42.642;23.310;2023-06-24T05:34:53;18.67;;;15.32;;
28910;SDS011;16028;42.642;23.310;2023-06-24T05:37:20;28.00;;;17.08;;
28910;SDS011;16028;42.642;23.310;2023-06-24T05:39:46;24.58;;;16.80;;
28910;SDS011;16028;42.642;23.310;2023-06-24T05:42:13;19.88;;;14.95;;
28910;SDS011;16028;42.642;23.310;2023-06-24T05:44:40;20.55;;;15.75;;
28910;SDS011;16028;42.642;23.310;2023-06-24T05:47:08;24.77;;;15.70;;
28910;SDS011;16028;42.642;23.310;2023-06-24T05:49:35;26.30;;;17.20;;
28910;SDS011;16028;42.642;23.310;2023-06-24T05:52:02;20.70;;;14.02;;
28910;SDS011;16028;42.642;23.310;2023-06-24T05:54:29;17.27;;;13.35;;
28910;SDS011;16028;42.642;23.310;2023-06-24T05:56:56;14.80;;;12.68;;
28910;SDS011;16028;42.642;23.310;2023-06-24T05:59:23;22.67;;;14.70;;
28910;SDS011;16028;42.642;23.310;2023-06-24T06:01:50;17.90;;;13.18;;
28910;SDS011;16028;42.642;23.310;2023-06-24T06:04:18;22.08;;;13.13;;
28910;SDS011;16028;42.642;23.310;2023-06-24T06:06:48;18.13;;;14.10;;
28910;SDS011;16028;42.642;23.310;2023-06-24T06:09:15;14.38;;;12.23;;
28910;SDS011;16028;42.642;23.310;2023-06-24T06:11:42;20.63;;;14.98;;
28910;SDS011;16028;42.642;23.310;2023-06-24T06:14:08;15.82;;;14.10;;
28910;SDS011;16028;42.642;23.310;2023-06-24T06:16:35;18.17;;;14.18;;
28910;SDS011;16028;42.642;23.310;2023-06-24T06:19:02;17.40;;;13.88;;
28910;SDS011;16028;42.642;23.310;2023-06-24T06:21:30;21.67;;;14.15;;
28910;SDS011;16028;42.642;23.310;2023-06-24T06:23:57;17.23;;;14.48;;
28910;SDS011;16028;42.642;23.310;2023-06-24T06:26:24;27.52;;;18.33;;
28910;SDS011;16028;42.642;23.310;2023-06-24T06:28:51;21.02;;;14.02;;
28910;SDS011;16028;42.642;23.310;2023-06-24T06:31:18;17.42;;;13.55;;
28910;SDS011;16028;42.642;23.310;2023-06-24T06:33:46;29.10;;;14.23;;
28910;SDS011;16028;42.642;23.310;2023-06-24T06:36:13;18.80;;;13.48;;
28910;SDS011;16028;42.642;23.310;2023-06-24T06:38:41;22.25;;;15.13;;
28910;SDS011;16028;42.642;23.310;2023-06-24T06:41:08;20.65;;;14.77;;
28910;SDS011;16028;42.642;23.310;2023-06-24T06:43:35;18.33;;;13.10;;
28910;SDS011;16028;42.642;23.310;2023-06-24T06:46:01;21.00;;;14.77;;
28910;SDS011;16028;42.642;23.310;2023-06-24T06:48:28;19.88;;;15.73;;
28910;SDS011;16028;42.642;23.310;2023-06-24T06:50:55;25.23;;;16.60;;
28910;SDS011;16028;42.642;23.310;2023-06-24T06:53:22;18.60;;;16.05;;
28910;SDS011;16028;42.642;23.310;2023-06-24T06:55:50;22.52;;;15.95;;
28910;SDS011;16028;42.642;23.310;2023-06-24T06:58:17;23.63;;;15.25;;
28910;SDS011;16028;42.642;23.310;2023-06-24T07:00:44;23.05;;;16.30;;
28910;SDS011;16028;42.642;23.310;2023-06-24T07:03:11;20.38;;;16.52;;
28910;SDS011;16028;42.642;23.310;2023-06-24T07:05:38;22.38;;;15.55;;
28910;SDS011;16028;42.642;23.310;2023-06-24T07:08:05;105.07;;;45.17;;
28910;SDS011;16028;42.642;23.310;2023-06-24T07:10:32;18.23;;;15.20;;
28910;SDS011;16028;42.642;23.310;2023-06-24T07:13:00;25.77;;;15.93;;
28910;SDS011;16028;42.642;23.310;2023-06-24T07:15:27;20.88;;;14.90;;
28910;SDS011;16028;42.642;23.310;2023-06-24T07:17:54;19.48;;;15.32;;
28910;SDS011;16028;42.642;23.310;2023-06-24T07:20:21;18.63;;;13.85;;
28910;SDS011;16028;42.642;23.310;2023-06-24T07:22:48;20.88;;;14.55;;
28910;SDS011;16028;42.642;23.310;2023-06-24T07:25:15;21.63;;;15.73;;
28910;SDS011;16028;42.642;23.310;2023-06-24T07:27:45;18.17;;;16.05;;
28910;SDS011;16028;42.642;23.310;2023-06-24T07:30:13;23.23;;;16.42;;
28910;SDS011;16028;42.642;23.310;2023-06-24T07:32:40;20.30;;;15.82;;
28910;SDS011;16028;42.642;23.310;2023-06-24T07:35:07;21.10;;;16.40;;
28910;SDS011;16028;42.642;23.310;2023-06-24T07:37:38;26.20;;;15.82;;
28910;SDS011;16028;42.642;23.310;2023-06-24T07:40:06;32.67;;;16.15;;
28910;SDS011;16028;42.642;23.310;2023-06-24T07:42:33;23.75;;;17.45;;
28910;SDS011;16028;42.642;23.310;2023-06-24T07:45:00;24.25;;;15.73;;
28910;SDS011;16028;42.642;23.310;2023-06-24T07:47:28;27.33;;;17.40;;
28910;SDS011;16028;42.642;23.310;2023-06-24T07:49:59;20.08;;;16.77;;
28910;SDS011;16028;42.642;23.310;2023-06-24T07:52:28;23.98;;;16.48;;
28910;SDS011;16028;42.642;23.310;2023-06-24T07:54:54;18.75;;;16.65;;
28910;SDS011;16028;42.642;23.310;2023-06-24T07:57:21;22.13;;;16.92;;
28910;SDS011;16028;42.642;23.310;2023-06-24T07:59:48;24.52;;;16.02;;
28910;SDS011;16028;42.642;23.310;2023-06-24T08:02:15;22.75;;;17.58;;
28910;SDS011;16028;42.642;23.310;2023-06-24T08:04:44;32.28;;;17.50;;
28910;SDS011;16028;42.642;23.310;2023-06-24T08:07:10;20.55;;;16.15;;
28910;SDS011;16028;42.642;23.310;2023-06-24T08:09:37;21.83;;;17.33;;
28910;SDS011;16028;42.642;23.310;2023-06-24T08:12:04;20.38;;;16.70;;
28910;SDS011;16028;42.642;23.310;2023-06-24T08:14:31;20.73;;;15.75;;
28910;SDS011;16028;42.642;23.310;2023-06-24T08:16:58;21.75;;;15.55;;
28910;SDS011;16028;42.642;23.310;2023-06-24T08:19:25;19.67;;;14.93;;
28910;SDS011;16028;42.642;23.310;2023-06-24T08:21:56;29.73;;;15.85;;
28910;SDS011;16028;42.642;23.310;2023-06-24T08:24:23;21.77;;;16.00;;
28910;SDS011;16028;42.642;23.310;2023-06-24T08:26:50;29.30;;;22.08;;
28910;SDS011;16028;42.642;23.310;2023-06-24T08:29:18;30.52;;;16.58;;
28910;SDS011;16028;42.642;23.310;2023-06-24T08:31:45;17.83;;;15.38;;
28910;SDS011;16028;42.642;23.310;2023-06-24T08:34:11;21.80;;;15.93;;
28910;SDS011;16028;42.642;23.310;2023-06-24T08:36:38;19.77;;;15.23;;
28910;SDS011;16028;42.642;23.310;2023-06-24T08:39:07;18.23;;;15.38;;
28910;SDS011;16028;42.642;23.310;2023-06-24T08:41:34;19.90;;;14.00;;
28910;SDS011;16028;42.642;23.310;2023-06-24T08:44:01;18.77;;;15.27;;
28910;SDS011;16028;42.642;23.310;2023-06-24T08:46:27;19.85;;;16.58;;
28910;SDS011;16028;42.642;23.310;2023-06-24T08:48:59;17.10;;;15.30;;
28910;SDS011;16028;42.642;23.310;2023-06-24T08:51:33;18.85;;;15.27;;
28910;SDS011;16028;42.642;23.310;2023-06-24T08:54:07;21.23;;;15.00;;
28910;SDS011;16028;42.642;23.310;2023-06-24T08:56:36;21.67;;;16.58;;
28910;SDS011;16028;42.642;23.310;2023-06-24T08:59:04;22.58;;;16.90;;
28910;SDS011;16028;42.642;23.310;2023-06-24T09:01:31;19.70;;;15.05;;
28910;SDS011;16028;42.642;23.310;2023-06-24T09:03:58;17.80;;;14.00;;
28910;SDS011;16028;42.642;23.310;2023-06-24T09:06:25;25.58;;;20.05;;
28910;SDS011;16028;42.642;23.310;2023-06-24T09:08:52;17.52;;;14.90;;
28910;SDS011;16028;42.642;23.310;2023-06-24T09:11:23;20.58;;;15.30;;
28910;SDS011;16028;42.642;23.310;2023-06-24T09:13:54;20.38;;;15.15;;
28910;SDS011;16028;42.642;23.310;2023-06-24T09:16:22;18.70;;;15.05;;
28910;SDS011;16028;42.642;23.310;2023-06-24T09:18:49;16.90;;;14.68;;
28910;SDS011;16028;42.642;23.310;2023-06-24T09:21:23;15.88;;;13.65;;
28910;SDS011;16028;42.642;23.310;2023-06-24T09:26:19;15.68;;;14.00;;
28910;SDS011;16028;42.642;23.310;2023-06-24T09:28:48;15.55;;;13.40;;
28910;SDS011;16028;42.642;23.310;2023-06-24T09:31:16;19.77;;;15.20;;
28910;SDS011;16028;42.642;23.310;2023-06-24T09:33:44;18.40;;;14.05;;
28910;SDS011;16028;42.642;23.310;2023-06-24T09:36:12;17.88;;;14.25;;
28910;SDS011;16028;42.642;23.310;2023-06-24T09:38:41;18.00;;;13.77;;
28910;SDS011;16028;42.642;23.310;2023-06-24T09:41:09;16.63;;;13.20;;
28910;SDS011;16028;42.642;23.310;2023-06-24T09:43:37;26.75;;;16.33;;
28910;SDS011;16028;42.642;23.310;2023-06-24T09:46:06;25.58;;;14.50;;
28910;SDS011;16028;42.642;23.310;2023-06-24T09:48:33;19.02;;;13.15;;
28910;SDS011;16028;42.642;23.310;2023-06-24T09:51:01;18.17;;;13.45;;
28910;SDS011;16028;42.642;23.310;2023-06-24T09:53:29;18.65;;;15.05;;
28910;SDS011;16028;42.642;23.310;2023-06-24T09:55:57;20.67;;;14.85;;
28910;SDS011;16028;42.642;23.310;2023-06-24T09:58:25;17.15;;;12.57;;
28910;SDS011;16028;42.642;23.310;2023-06-24T10:00:54;13.98;;;12.55;;
28910;SDS011;16028;42.642;23.310;2023-06-24T10:03:23;14.90;;;11.88;;
28910;SDS011;16028;42.642;23.310;2023-06-24T10:05:50;19.00;;;13.20;;
28910;SDS011;16028;42.642;23.310;2023-06-24T10:08:17;19.90;;;13.48;;
28910;SDS011;16028;42.642;23.310;2023-06-24T10:10:45;17.30;;;11.82;;
28910;SDS011;16028;42.642;23.310;2023-06-24T10:13:12;15.52;;;11.38;;
28910;SDS011;16028;42.642;23.310;2023-06-24T10:15:39;17.42;;;13.05;;
28910;SDS011;16028;42.642;23.310;2023-06-24T10:21:04;15.07;;;12.10;;
28910;SDS011;16028;42.642;23.310;2023-06-24T10:23:33;21.58;;;13.63;;
28910;SDS011;16028;42.642;23.310;2023-06-24T10:26:07;19.05;;;12.27;;
28910;SDS011;16028;42.642;23.310;2023-06-24T10:31:53;13.43;;;11.07;;
28910;SDS011;16028;42.642;23.310;2023-06-24T10:34:24;21.83;;;12.23;;
28910;SDS011;16028;42.642;23.310;2023-06-24T10:36:56;21.00;;;12.43;;
28910;SDS011;16028;42.642;23.310;2023-06-24T10:42:29;14.35;;;11.27;;
28910;SDS011;16028;42.642;23.310;2023-06-24T10:47:26;17.20;;;11.65;;
28910;SDS011;16028;42.642;23.310;2023-06-24T10:49:53;18.17;;;12.15;;
28910;SDS011;16028;42.642;23.310;2023-06-24T10:52:22;12.93;;;11.35;;
28910;SDS011;16028;42.642;23.310;2023-06-24T10:54:50;16.77;;;12.18;;
28910;SDS011;16028;42.642;23.310;2023-06-24T10:57:20;18.33;;;11.13;;
28910;SDS011;16028;42.642;23.310;2023-06-24T10:59:49;17.13;;;11.50;;
28910;SDS011;16028;42.642;23.310;2023-06-24T11:02:17;17.75;;;11.98;;
28910;SDS011;16028;42.642;23.310;2023-06-24T11:04:44;15.13;;;11.40;;
28910;SDS011;16028;42.642;23.310;2023-06-24T11:07:12;13.55;;;11.10;;
28910;SDS011;16028;42.642;23.310;2023-06-24T11:09:41;11.35;;;9.60;;
28910;SDS011;16028;42.642;23.310;2023-06-24T11:12:09;11.63;;;9.23;;
28910;SDS011;16028;42.642;23.310;2023-06-24T11:14:37;15.45;;;10.65;;
28910;SDS011;16028;42.642;23.310;2023-06-24T11:17:05;15.65;;;10.15;;
28910;SDS011;16028;42.642;23.310;2023-06-24T11:19:32;12.88;;;9.80;;
28910;SDS011;16028;42.642;23.310;2023-06-24T11:22:01;10.48;;;9.38;;
28910;SDS011;16028;42.642;23.310;2023-06-24T11:24:28;11.10;;;9.77;;
28910;SDS011;16028;42.642;23.310;2023-06-24T11:26:57;11.52;;;9.48;;
28910;SDS011;16028;42.642;23.310;2023-06-24T11:29:28;14.73;;;9.23;;
28910;SDS011;16028;42.642;23.310;2023-06-24T11:31:55;18.42;;;9.50;;
28910;SDS011;16028;42.642;23.310;2023-06-24T11:34:22;11.98;;;9.95;;
28910;SDS011;16028;42.642;23.310;2023-06-24T11:36:49;12.23;;;9.85;;
28910;SDS011;16028;42.642;23.310;2023-06-24T11:39:22;12.05;;;10.68;;
28910;SDS011;16028;42.642;23.310;2023-06-24T11:41:50;13.45;;;10.30;;
28910;SDS011;16028;42.642;23.310;2023-06-24T11:44:19;15.60;;;10.45;;
28910;SDS011;16028;42.642;23.310;2023-06-24T11:46:47;16.48;;;10.90;;
28910;SDS011;16028;42.642;23.310;2023-06-24T11:49:13;11.90;;;10.02;;
28910;SDS011;16028;42.642;23.310;2023-06-24T11:51:47;10.77;;;9.65;;
28910;SDS011;16028;42.642;23.310;2023-06-24T11:54:16;11.82;;;9.80;;
28910;SDS011;16028;42.642;23.310;2023-06-24T11:56:48;13.43;;;9.52;;
28910;SDS011;16028;42.642;23.310;2023-06-24T11:59:16;11.32;;;8.45;;
28910;SDS011;16028;42.642;23.310;2023-06-24T12:01:52;12.40;;;8.98;;
28910;SDS011;16028;42.642;23.310;2023-06-24T12:04:20;11.65;;;9.60;;
28910;SDS011;16028;42.642;23.310;2023-06-24T12:06:47;10.80;;;9.05;;
28910;SDS011;16028;42.642;23.310;2023-06-24T12:09:14;13.50;;;8.95;;
28910;SDS011;16028;42.642;23.310;2023-06-24T12:11:42;12.98;;;9.48;;
28910;SDS011;16028;42.642;23.310;2023-06-24T12:14:09;12.65;;;9.18;;
28910;SDS011;16028;42.642;23.310;2023-06-24T12:16:37;15.50;;;9.23;;
28910;SDS011;16028;42.642;23.310;2023-06-24T12:19:05;11.55;;;8.50;;
28910;SDS011;16028;42.642;23.310;2023-06-24T12:21:32;13.35;;;9.38;;
28910;SDS011;16028;42.642;23.310;2023-06-24T12:23:58;16.10;;;9.80;;
28910;SDS011;16028;42.642;23.310;2023-06-24T12:26:25;10.20;;;8.35;;
28910;SDS011;16028;42.642;23.310;2023-06-24T12:28:53;10.85;;;8.88;;
28910;SDS011;16028;42.642;23.310;2023-06-24T12:31:21;12.70;;;9.65;;
28910;SDS011;16028;42.642;23.310;2023-06-24T12:33:49;12.50;;;8.55;;
28910;SDS011;16028;42.642;23.310;2023-06-24T12:36:16;13.55;;;9.63;;
28910;SDS011;16028;42.642;23.310;2023-06-24T12:38:43;11.07;;;9.88;;
28910;SDS011;16028;42.642;23.310;2023-06-24T12:41:10;11.15;;;9.38;;
28910;SDS011;16028;42.642;23.310;2023-06-24T12:43:37;14.95;;;10.02;;
28910;SDS011;16028;42.642;23.310;2023-06-24T12:46:03;16.15;;;10.93;;
28910;SDS011;16028;42.642;23.310;2023-06-24T12:48:30;17.48;;;10.27;;
28910;SDS011;16028;42.642;23.310;2023-06-24T12:50:59;11.60;;;9.50;;
28910;SDS011;16028;42.642;23.310;2023-06-24T12:53:25;14.40;;;10.35;;
28910;SDS011;16028;42.642;23.310;2023-06-24T12:55:52;15.38;;;10.65;;
28910;SDS011;16028;42.642;23.310;2023-06-24T12:58:22;11.98;;;9.30;;
28910;SDS011;16028;42.642;23.310;2023-06-24T13:00:49;13.00;;;9.35;;
28910;SDS011;16028;42.642;23.310;2023-06-24T13:03:16;15.82;;;9.98;;
28910;SDS011;16028;42.642;23.310;2023-06-24T13:05:43;13.68;;;8.95;;
28910;SDS011;16028;42.642;23.310;2023-06-24T13:08:11;13.50;;;9.18;;
28910;SDS011;16028;42.642;23.310;2023-06-24T13:10:37;14.32;;;9.93;;
28910;SDS011;16028;42.642;23.310;2023-06-24T13:13:04;10.40;;;9.30;;
28910;SDS011;16028;42.642;23.310;2023-06-24T13:15:33;11.55;;;9.75;;
28910;SDS011;16028;42.642;23.310;2023-06-24T13:18:00;16.17;;;11.52;;
28910;SDS011;16028;42.642;23.310;2023-06-24T13:20:29;18.75;;;10.50;;
28910;SDS011;16028;42.642;23.310;2023-06-24T13:22:55;22.40;;;10.45;;
28910;SDS011;16028;42.642;23.310;2023-06-24T13:25:24;19.27;;;11.57;;
28910;SDS011;16028;42.642;23.310;2023-06-24T13:27:50;21.00;;;11.27;;
28910;SDS011;16028;42.642;23.310;2023-06-24T13:30:18;21.48;;;11.98;;
28910;SDS011;16028;42.642;23.310;2023-06-24T13:32:44;18.63;;;11.40;;
28910;SDS011;16028;42.642;23.310;2023-06-24T13:35:11;15.52;;;11.30;;
28910;SDS011;16028;42.642;23.310;2023-06-24T13:37:38;16.40;;;12.95;;
28910;SDS011;16028;42.642;23.310;2023-06-24T13:40:06;18.45;;;11.02;;
28910;SDS011;16028;42.642;23.310;2023-06-24T13:42:35;15.77;;;9.60;;
28910;SDS011;16028;42.642;23.310;2023-06-24T13:45:02;19.23;;;10.73;;
28910;SDS011;16028;42.642;23.310;2023-06-24T13:47:29;23.88;;;9.88;;
28910;SDS011;16028;42.642;23.310;2023-06-24T13:49:56;17.77;;;8.23;;
28910;SDS011;16028;42.642;23.310;2023-06-24T13:52:25;16.08;;;7.90;;
28910;SDS011;16028;42.642;23.310;2023-06-24T13:54:52;20.05;;;8.25;;
28910;SDS011;16028;42.642;23.310;2023-06-24T13:57:19;17.17;;;8.15;;
28910;SDS011;16028;42.642;23.310;2023-06-24T13:59:47;16.08;;;8.48;;
28910;SDS011;16028;42.642;23.310;2023-06-24T14:02:14;16.73;;;8.02;;
28910;SDS011;16028;42.642;23.310;2023-06-24T14:04:41;21.75;;;8.25;;
28910;SDS011;16028;42.642;23.310;2023-06-24T14:07:08;11.00;;;7.78;;
28910;SDS011;16028;42.642;23.310;2023-06-24T14:09:35;19.33;;;8.52;;
28910;SDS011;16028;42.642;23.310;2023-06-24T14:12:04;15.52;;;8.85;;
28910;SDS011;16028;42.642;23.310;2023-06-24T14:14:33;24.25;;;8.85;;
28910;SDS011;16028;42.642;23.310;2023-06-24T14:17:02;17.98;;;8.63;;
28910;SDS011;16028;42.642;23.310;2023-06-24T14:19:33;15.85;;;7.85;;
28910;SDS011;16028;42.642;23.310;2023-06-24T14:22:00;17.15;;;8.77;;
28910;SDS011;16028;42.642;23.310;2023-06-24T14:24:27;15.75;;;8.32;;
28910;SDS011;16028;42.642;23.310;2023-06-24T14:26:54;19.50;;;8.90;;
28910;SDS011;16028;42.642;23.310;2023-06-24T14:29:21;21.38;;;9.32;;
28910;SDS011;16028;42.642;23.310;2023-06-24T14:31:48;22.13;;;8.73;;